createdAt,value
2019-06-10T00:02:07.145Z,17.60
2019-06-10T00:04:37.295Z,17.50
2019-06-10T00:07:07.439Z,17.50
2019-06-10T00:09:37.126Z,17.40
2019-06-10T00:12:08.117Z,17.40
2019-06-10T00:14:38.870Z,17.30
2019-06-10T00:17:10.819Z,17.30
2019-06-10T00:19:40.926Z,17.30
2019-06-10T00:22:11.491Z,17.10
2019-06-10T00:24:41.482Z,17.30
2019-06-10T00:27:11.935Z,17.20
2019-06-10T00:29:41.734Z,17.20
2019-06-10T00:32:13.095Z,17.30
2019-06-10T00:34:42.687Z,17.20
2019-06-10T00:37:14.539Z,17.20
2019-06-10T00:39:43.506Z,17.20
2019-06-10T00:42:15.061Z,17.10
2019-06-10T00:44:44.207Z,17.10
2019-06-10T00:47:15.205Z,17.10
2019-06-10T00:49:45.136Z,17.10
2019-06-10T00:52:14.596Z,17.00
2019-06-10T00:54:44.196Z,17.20
2019-06-10T00:57:13.878Z,17.20
2019-06-10T00:59:43.358Z,17.30
2019-06-10T01:02:14.409Z,17.40
2019-06-10T01:04:44.775Z,17.40
2019-06-10T01:07:15.009Z,17.40
2019-06-10T01:09:44.569Z,17.40
2019-06-10T01:12:15.032Z,17.40
2019-06-10T01:14:44.901Z,17.30
2019-06-10T01:17:15.443Z,17.20
2019-06-10T01:19:45.363Z,17.30
2019-06-10T01:22:15.942Z,17.30
2019-06-10T01:24:46.149Z,17.30
2019-06-10T01:27:15.669Z,17.30
2019-06-10T01:29:45.146Z,17.30
2019-06-10T01:32:15.067Z,17.30
2019-06-10T01:34:44.746Z,17.20
2019-06-10T01:37:14.806Z,17.30
2019-06-10T01:39:45.563Z,17.20
2019-06-10T01:42:15.873Z,17.00
2019-06-10T01:44:46.349Z,17.00
2019-06-10T01:47:17.423Z,17.00
2019-06-10T01:49:47.054Z,17.00
2019-06-10T01:52:17.883Z,16.80
2019-06-10T01:54:47.865Z,16.70
2019-06-10T01:57:18.578Z,16.70
2019-06-10T01:59:50.714Z,16.70
2019-06-10T02:02:23.680Z,16.80
2019-06-10T02:04:52.345Z,16.80
2019-06-10T02:07:22.976Z,16.80
2019-06-10T02:09:52.765Z,16.80
2019-06-10T02:12:24.164Z,16.70
2019-06-10T02:14:54.285Z,16.70
2019-06-10T02:17:24.228Z,16.60
2019-06-10T02:19:53.901Z,16.50
2019-06-10T02:22:24.381Z,16.40
2019-06-10T02:24:54.145Z,16.50
2019-06-10T02:27:23.608Z,16.40
2019-06-10T02:29:53.243Z,16.40
2019-06-10T02:32:31.673Z,16.30
2019-06-10T02:35:07.842Z,16.30
2019-06-10T02:37:32.286Z,16.30
2019-06-10T02:39:56.957Z,16.40
2019-06-10T02:42:35.940Z,16.50
2019-06-10T02:45:08.182Z,16.50
2019-06-10T02:47:38.456Z,16.30
2019-06-10T02:50:14.284Z,16.30
2019-06-10T02:52:44.324Z,16.40
2019-06-10T02:55:14.013Z,16.40
2019-06-10T02:57:45.135Z,16.30
2019-06-10T03:00:23.419Z,16.10
2019-06-10T03:02:48.111Z,16.10
2019-06-10T03:05:20.210Z,16.10
2019-06-10T03:07:48.838Z,16.20
2019-06-10T03:10:21.109Z,16.20
2019-06-10T03:12:49.858Z,16.20
2019-06-10T03:15:19.945Z,16.10
2019-06-10T03:17:51.997Z,16.10
2019-06-10T03:20:24.337Z,16.10
2019-06-10T03:22:52.509Z,16.20
2019-06-10T03:25:23.295Z,16.20
2019-06-10T03:27:53.626Z,16.40
2019-06-10T03:30:37.612Z,16.50
2019-06-10T03:32:55.650Z,16.50
2019-06-10T03:35:26.593Z,16.40
2019-06-10T03:37:56.459Z,16.50
2019-06-10T03:40:27.384Z,16.30
2019-06-10T03:42:57.220Z,16.30
2019-06-10T03:45:27.180Z,16.30
2019-06-10T03:47:57.968Z,16.40
2019-06-10T03:50:28.630Z,16.30
2019-06-10T03:53:01.028Z,16.40
2019-06-10T03:55:29.531Z,16.30
2019-06-10T03:57:59.027Z,16.40
2019-06-10T04:00:28.973Z,16.60
2019-06-10T04:02:58.515Z,16.60
2019-06-10T04:05:28.866Z,16.40
2019-06-10T04:07:58.437Z,16.50
2019-06-10T04:10:29.519Z,16.50
2019-06-10T04:12:59.276Z,16.60
2019-06-10T04:15:29.584Z,16.60
2019-06-10T04:18:00.070Z,16.60
2019-06-10T04:20:29.680Z,16.60
2019-06-10T04:22:59.330Z,16.60
2019-06-10T04:25:29.506Z,16.70
2019-06-10T04:28:00.182Z,16.60
2019-06-10T04:30:32.364Z,16.60
2019-06-10T04:33:02.341Z,16.50
2019-06-10T04:35:33.644Z,16.60
2019-06-10T04:38:03.289Z,16.60
2019-06-10T04:40:33.003Z,16.70
2019-06-10T04:43:03.000Z,16.70
2019-06-10T04:45:32.670Z,16.70
2019-06-10T04:48:03.031Z,16.80
2019-06-10T04:50:41.518Z,16.90
2019-06-10T04:53:04.265Z,16.90
2019-06-10T04:55:33.824Z,17.10
2019-06-10T04:58:03.410Z,17.40
2019-06-10T05:00:33.245Z,17.80
2019-06-10T05:03:03.078Z,18.20
2019-06-10T05:05:32.873Z,18.60
2019-06-10T05:08:02.809Z,18.90
2019-06-10T05:10:33.269Z,19.20
2019-06-10T05:13:03.216Z,19.40
2019-06-10T05:15:34.924Z,19.50
2019-06-10T05:18:04.124Z,19.40
2019-06-10T05:20:51.097Z,19.20
2019-06-10T05:23:05.138Z,19.10
2019-06-10T05:25:34.652Z,18.90
2019-06-10T05:28:04.214Z,18.90
2019-06-10T05:30:34.200Z,18.90
2019-06-10T05:33:03.736Z,19.20
2019-06-10T05:35:34.034Z,19.50
2019-06-10T05:38:03.632Z,19.60
2019-06-10T05:40:34.249Z,19.60
2019-06-10T05:43:03.893Z,19.80
2019-06-10T05:45:35.173Z,19.80
2019-06-10T05:48:04.936Z,19.80
2019-06-10T05:50:35.373Z,19.90
2019-06-10T05:53:04.940Z,20.30
2019-06-10T05:55:35.247Z,21.00
2019-06-10T05:58:04.930Z,21.60
2019-06-10T06:00:35.564Z,22.70
2019-06-10T06:03:05.550Z,23.70
2019-06-10T06:05:37.637Z,24.00
2019-06-10T06:08:08.972Z,24.40
2019-06-10T06:10:37.951Z,25.50
2019-06-10T06:13:07.472Z,26.70
2019-06-10T06:15:38.044Z,27.10
2019-06-10T06:18:10.578Z,27.00
2019-06-10T06:20:39.053Z,26.30
2019-06-10T06:23:09.213Z,25.90
2019-06-10T06:25:42.909Z,25.90
2019-06-10T06:28:12.427Z,25.70
2019-06-10T06:30:42.234Z,25.70
2019-06-10T06:33:13.700Z,25.30
2019-06-10T06:35:46.344Z,24.80
2019-06-10T06:38:14.378Z,24.70
2019-06-10T06:40:43.998Z,24.10
2019-06-10T06:43:13.504Z,24.00
2019-06-10T06:45:43.308Z,23.90
2019-06-10T06:48:12.812Z,24.10
2019-06-10T06:51:00.268Z,24.10
2019-06-10T06:53:25.675Z,23.60
2019-06-10T06:55:45.678Z,23.40
2019-06-10T06:58:15.163Z,23.10
2019-06-10T07:01:00.723Z,23.00
2019-06-10T07:03:15.904Z,22.90
2019-06-10T07:05:46.527Z,22.70
2019-06-10T07:08:17.583Z,22.90
2019-06-10T07:10:48.094Z,23.20
2019-06-10T07:13:17.635Z,23.50
2019-06-10T07:15:47.974Z,23.90
2019-06-10T07:18:17.565Z,24.40
2019-06-10T07:20:47.123Z,25.10
2019-06-10T07:23:16.631Z,26.20
2019-06-10T07:25:47.576Z,28.40
2019-06-10T07:28:17.399Z,29.80
2019-06-10T07:30:51.486Z,30.40
2019-06-10T07:33:18.358Z,30.60
2019-06-10T07:35:47.918Z,30.90
2019-06-10T07:38:17.600Z,31.80
2019-06-10T07:40:47.165Z,31.70
2019-06-10T07:43:16.750Z,30.90
2019-06-10T07:45:48.085Z,29.90
2019-06-10T07:48:17.511Z,29.70
2019-06-10T07:50:47.267Z,29.40
2019-06-10T07:53:16.827Z,29.70
2019-06-10T07:55:46.781Z,30.60
2019-06-10T07:58:16.806Z,31.70
2019-06-10T08:00:48.361Z,31.70
2019-06-10T08:03:17.511Z,30.70
2019-06-10T08:05:47.229Z,30.30
2019-06-10T08:08:16.844Z,30.80
2019-06-10T08:10:48.134Z,30.90
2019-06-10T08:13:17.859Z,30.50
2019-06-10T08:15:48.414Z,31.20
2019-06-10T08:18:18.069Z,31.80
2019-06-10T08:20:49.198Z,32.10
2019-06-10T08:23:23.585Z,31.80
2019-06-10T08:25:56.876Z,31.20
2019-06-10T08:28:23.805Z,29.80
2019-06-10T08:30:53.509Z,28.80
2019-06-10T08:33:23.246Z,27.70
2019-06-10T08:35:59.377Z,28.20
2019-06-10T08:38:24.004Z,29.50
2019-06-10T08:40:53.645Z,30.80
2019-06-10T08:43:23.264Z,31.30
2019-06-10T08:45:53.138Z,30.20
2019-06-10T08:48:23.106Z,29.40
2019-06-10T08:50:53.910Z,28.90
2019-06-10T08:53:23.485Z,29.00
2019-06-10T08:55:53.794Z,30.00
2019-06-10T08:58:23.618Z,30.80
2019-06-10T09:00:53.987Z,31.10
2019-06-10T09:03:24.130Z,31.10
2019-06-10T09:05:57.688Z,31.00
2019-06-10T09:08:26.350Z,30.20
2019-06-10T09:10:55.965Z,30.10
2019-06-10T09:13:25.546Z,30.40
2019-06-10T09:16:11.146Z,31.00
2019-06-10T09:18:26.511Z,32.20
2019-06-10T09:20:56.403Z,32.70
2019-06-10T09:23:26.192Z,33.10
2019-06-10T09:25:57.516Z,33.20
2019-06-10T09:28:27.267Z,33.40
2019-06-10T09:30:59.136Z,33.60
2019-06-10T09:33:28.550Z,33.50
2019-06-10T09:35:58.111Z,32.40
2019-06-10T09:38:27.624Z,32.60
2019-06-10T09:41:01.889Z,32.70
2019-06-10T09:43:29.971Z,33.20
2019-06-10T09:45:59.782Z,33.80
2019-06-10T09:48:29.301Z,33.40
2019-06-10T09:50:59.305Z,33.20
2019-06-10T09:53:34.147Z,31.90
2019-06-10T09:56:00.361Z,31.20
2019-06-10T09:58:32.688Z,30.60
2019-06-10T10:01:03.223Z,30.30
2019-06-10T10:03:33.377Z,30.50
2019-06-10T10:06:14.620Z,30.80
2019-06-10T10:08:36.564Z,31.20
2019-06-10T10:11:06.188Z,31.50
2019-06-10T10:13:35.746Z,32.00
2019-06-10T10:16:05.720Z,32.10
2019-06-10T10:18:35.572Z,32.30
2019-06-10T10:21:05.188Z,32.50
2019-06-10T10:23:50.278Z,32.80
2019-06-10T10:26:06.274Z,32.80
2019-06-10T10:28:35.833Z,32.20
2019-06-10T10:31:05.403Z,32.10
2019-06-10T10:33:34.906Z,32.40
2019-06-10T10:36:04.599Z,32.60
2019-06-10T10:38:34.829Z,33.00
2019-06-10T10:41:05.331Z,33.90
2019-06-10T10:43:37.853Z,34.00
2019-06-10T10:46:06.420Z,33.20
2019-06-10T10:48:36.073Z,32.20
2019-06-10T10:51:05.745Z,31.40
2019-06-10T10:53:35.371Z,30.90
2019-06-10T10:56:05.026Z,31.00
2019-06-10T10:58:34.574Z,30.60
2019-06-10T11:01:05.087Z,30.90
2019-06-10T11:03:34.934Z,30.30
2019-06-10T11:06:04.610Z,31.00
2019-06-10T11:08:34.209Z,31.40
2019-06-10T11:11:05.742Z,31.80
2019-06-10T11:13:37.562Z,32.40
2019-06-10T11:16:07.468Z,32.70
2019-06-10T11:18:37.102Z,32.70
2019-06-10T11:21:06.716Z,32.90
2019-06-10T11:23:36.489Z,33.00
2019-06-10T11:26:06.431Z,32.50
2019-06-10T11:28:35.938Z,31.50
2019-06-10T11:31:06.126Z,31.00
2019-06-10T11:33:35.825Z,30.50
2019-06-10T11:36:05.845Z,30.00
2019-06-10T11:38:35.369Z,29.70
2019-06-10T11:41:05.008Z,29.90
2019-06-10T11:43:34.522Z,29.70
2019-06-10T11:46:07.677Z,29.90
2019-06-10T11:48:35.658Z,29.50
2019-06-10T11:51:05.369Z,29.00
2019-06-10T11:53:35.056Z,28.80
2019-06-10T11:56:04.982Z,28.20
2019-06-10T11:58:34.676Z,27.60
2019-06-10T12:01:04.430Z,27.60
2019-06-10T12:03:34.260Z,27.50
2019-06-10T12:06:05.416Z,27.70
2019-06-10T12:08:35.300Z,27.30
2019-06-10T12:11:04.956Z,27.20
2019-06-10T12:13:34.887Z,26.80
2019-06-10T12:16:58.367Z,26.60
2019-06-10T12:18:36.031Z,26.50
2019-06-10T12:21:05.926Z,26.30
2019-06-10T12:23:35.622Z,26.20
2019-06-10T12:26:05.576Z,26.50
2019-06-10T12:28:35.429Z,27.10
2019-06-10T12:31:07.106Z,27.50
2019-06-10T12:33:36.510Z,27.50
2019-06-10T12:36:07.419Z,27.30
2019-06-10T12:38:37.355Z,27.60
2019-06-10T12:41:10.285Z,27.70
2019-06-10T12:43:38.171Z,27.90
2019-06-10T12:46:07.784Z,28.20
2019-06-10T12:48:37.294Z,28.60
2019-06-10T12:51:09.550Z,28.30
2019-06-10T12:53:38.113Z,28.00
2019-06-10T12:56:10.961Z,28.00
2019-06-10T12:58:38.985Z,27.50
2019-06-10T13:01:08.505Z,27.40
2019-06-10T13:03:38.047Z,27.50
2019-06-10T13:06:09.730Z,27.00
2019-06-10T13:08:39.708Z,26.70
2019-06-10T13:11:09.191Z,26.60
2019-06-10T13:13:39.291Z,26.70
2019-06-10T13:16:11.400Z,27.10
2019-06-10T13:18:40.254Z,27.30
2019-06-10T13:21:13.644Z,27.30
2019-06-10T13:23:43.246Z,27.50
2019-06-10T13:26:15.859Z,27.30
2019-06-10T13:28:44.550Z,27.40
2019-06-10T13:31:15.775Z,27.30
2019-06-10T13:33:45.678Z,27.20
2019-06-10T13:36:15.252Z,27.40
2019-06-10T13:38:44.964Z,27.70
2019-06-10T13:41:15.501Z,27.30
2019-06-10T13:43:45.120Z,27.40
2019-06-10T13:46:14.799Z,27.60
2019-06-10T13:48:44.628Z,27.30
2019-06-10T13:51:16.026Z,27.50
2019-06-10T13:53:46.321Z,27.40
2019-06-10T13:56:38.135Z,27.40
2019-06-10T13:58:47.892Z,27.40
2019-06-10T14:01:21.940Z,27.80
2019-06-10T14:03:48.704Z,28.10
2019-06-10T14:06:37.396Z,28.10
2019-06-10T14:08:49.444Z,28.10
2019-06-10T14:11:21.186Z,28.30
2019-06-10T14:13:52.694Z,28.50
2019-06-10T14:16:23.388Z,28.50
2019-06-10T14:18:54.083Z,28.60
2019-06-10T14:21:24.019Z,28.60
2019-06-10T14:23:53.803Z,28.20
2019-06-10T14:26:36.776Z,28.30
2019-06-10T14:28:54.726Z,28.50
2019-06-10T14:31:39.130Z,28.20
2019-06-10T14:33:55.510Z,28.20
2019-06-10T14:36:25.002Z,28.10
2019-06-10T14:38:54.511Z,28.20
2019-06-10T14:41:26.044Z,28.40
2019-06-10T14:43:55.593Z,28.10
2019-06-10T14:46:25.139Z,27.20
2019-06-10T14:48:54.613Z,26.60
2019-06-10T14:51:24.121Z,26.60
2019-06-10T14:53:53.924Z,26.50
2019-06-10T14:56:23.753Z,26.50
2019-06-10T14:58:53.676Z,26.70
2019-06-10T15:01:25.342Z,26.90
2019-06-10T15:03:54.443Z,27.00
2019-06-10T15:06:23.959Z,27.00
2019-06-10T15:08:53.514Z,26.50
2019-06-10T15:11:26.675Z,26.40
2019-06-10T15:13:54.676Z,26.20
2019-06-10T15:16:24.633Z,26.20
2019-06-10T15:18:54.181Z,26.00
2019-06-10T15:21:23.720Z,25.80
2019-06-10T15:23:53.213Z,25.60
2019-06-10T15:26:22.791Z,25.50
2019-06-10T15:28:52.367Z,25.30
2019-06-10T15:31:21.888Z,25.20
2019-06-10T15:33:52.439Z,25.20
2019-06-10T15:36:22.195Z,25.20
2019-06-10T15:38:52.503Z,25.00
2019-06-10T15:41:24.627Z,25.00
2019-06-10T15:43:53.588Z,24.80
2019-06-10T15:46:23.229Z,24.80
2019-06-10T15:48:54.134Z,24.70
2019-06-10T15:51:26.019Z,24.50
2019-06-10T15:53:55.288Z,24.40
2019-06-10T15:56:37.608Z,23.60
2019-06-10T15:58:55.988Z,22.40
2019-06-10T16:01:27.464Z,21.60
2019-06-10T16:03:56.977Z,21.00
2019-06-10T16:06:26.604Z,20.60
2019-06-10T16:08:56.097Z,20.40
2019-06-10T16:11:27.198Z,20.40
2019-06-10T16:13:57.365Z,20.30
2019-06-10T16:16:27.018Z,20.30
2019-06-10T16:18:56.796Z,20.40
2019-06-10T16:21:26.332Z,20.40
2019-06-10T16:23:55.861Z,20.50
2019-06-10T16:26:26.892Z,20.60
2019-06-10T16:28:56.838Z,20.60
2019-06-10T16:31:27.466Z,20.50
2019-06-10T16:33:57.216Z,20.40
2019-06-10T16:36:28.023Z,20.40
2019-06-10T16:38:58.020Z,20.50
2019-06-10T16:41:28.203Z,20.80
2019-06-10T16:43:57.883Z,21.00
2019-06-10T16:46:27.360Z,21.20
2019-06-10T16:48:56.903Z,21.40
2019-06-10T16:51:26.404Z,21.50
2019-06-10T16:53:56.112Z,21.70
2019-06-10T16:56:27.379Z,21.60
2019-06-10T16:58:56.780Z,21.60
2019-06-10T17:01:28.635Z,21.40
2019-06-10T17:03:57.622Z,21.20
2019-06-10T17:06:27.217Z,21.30
2019-06-10T17:08:58.659Z,21.30
2019-06-10T17:11:29.392Z,21.30
2019-06-10T17:13:59.576Z,21.20
2019-06-10T17:16:29.615Z,21.30
2019-06-10T17:18:59.522Z,21.30
2019-06-10T17:21:31.712Z,21.10
2019-06-10T17:24:03.260Z,21.20
2019-06-10T17:26:37.407Z,21.20
2019-06-10T17:29:03.220Z,21.20
2019-06-10T17:31:35.125Z,21.10
2019-06-10T17:34:04.263Z,21.10
2019-06-10T17:36:35.417Z,21.10
2019-06-10T17:39:08.931Z,21.20
2019-06-10T17:41:42.515Z,21.20
2019-06-10T17:44:12.968Z,21.20
2019-06-10T17:46:42.671Z,21.40
2019-06-10T17:49:13.034Z,21.70
2019-06-10T17:51:43.264Z,21.90
2019-06-10T17:54:13.135Z,22.10
2019-06-10T17:56:42.864Z,22.20
2019-06-10T17:59:12.909Z,22.30
2019-06-10T18:01:42.605Z,22.30
2019-06-10T18:04:12.979Z,22.40
2019-06-10T18:06:42.762Z,22.40
2019-06-10T18:09:12.501Z,22.50
2019-06-10T18:11:42.893Z,22.60
2019-06-10T18:14:12.516Z,22.60
2019-06-10T18:16:42.688Z,22.60
2019-06-10T18:19:12.417Z,22.60
2019-06-10T18:21:42.114Z,22.40
2019-06-10T18:24:12.805Z,22.20
2019-06-10T18:26:42.518Z,22.10
2019-06-10T18:29:12.872Z,22.00
2019-06-10T18:31:42.950Z,22.00
2019-06-10T18:34:13.263Z,21.90
2019-06-10T18:36:42.998Z,21.90
2019-06-10T18:39:12.619Z,22.00
2019-06-10T18:41:43.839Z,21.90
2019-06-10T18:44:22.068Z,21.70
2019-06-10T18:46:44.888Z,21.50
2019-06-10T18:49:14.419Z,21.20
2019-06-10T18:51:44.163Z,21.20
2019-06-10T18:54:14.146Z,21.10
2019-06-10T18:56:43.920Z,21.10
2019-06-10T18:59:20.704Z,21.10
2019-06-10T19:01:44.809Z,21.00
2019-06-10T19:04:14.375Z,20.90
2019-06-10T19:06:44.008Z,20.70
2019-06-10T19:09:13.670Z,20.70
2019-06-10T19:11:43.553Z,20.60
2019-06-10T19:14:13.277Z,20.50
2019-06-10T19:16:43.059Z,20.50
2019-06-10T19:19:12.946Z,20.30
2019-06-10T19:21:44.025Z,20.20
2019-06-10T19:24:14.009Z,20.10
2019-06-10T19:26:45.186Z,20.00
2019-06-10T19:29:27.478Z,19.90
2019-06-10T19:31:46.510Z,19.70
2019-06-10T19:34:16.251Z,19.50
2019-06-10T19:36:45.803Z,19.40
2019-06-10T19:39:15.390Z,19.30
2019-06-10T19:41:47.188Z,19.20
2019-06-10T19:44:16.115Z,19.20
2019-06-10T19:46:45.829Z,19.10
2019-06-10T19:49:15.292Z,19.00
2019-06-10T19:51:46.894Z,18.90
2019-06-10T19:54:16.311Z,18.90
2019-06-10T19:56:46.104Z,18.80
2019-06-10T19:59:15.667Z,18.80
2019-06-10T20:01:47.973Z,18.70
2019-06-10T20:04:18.096Z,18.70
2019-06-10T20:06:50.551Z,18.70
2019-06-10T20:09:22.461Z,18.80
2019-06-10T20:11:51.188Z,18.70
2019-06-10T20:14:20.758Z,18.60
2019-06-10T20:16:52.702Z,18.60
2019-06-10T20:19:22.471Z,18.70
2019-06-10T20:21:52.103Z,18.60
2019-06-10T20:24:22.220Z,18.60
2019-06-10T20:26:52.974Z,18.70
2019-06-10T20:29:22.718Z,18.60
2019-06-10T20:31:52.526Z,18.60
2019-06-10T20:34:25.752Z,18.50
2019-06-10T20:36:54.805Z,18.40
2019-06-10T20:39:25.052Z,18.30
2019-06-10T20:41:55.805Z,18.30
2019-06-10T20:44:25.674Z,18.30
2019-06-10T20:46:55.244Z,18.30
2019-06-10T20:49:24.918Z,18.40
2019-06-10T20:52:06.530Z,18.40
2019-06-10T20:54:25.863Z,18.40
2019-06-10T20:56:55.523Z,18.50
2019-06-10T20:59:26.106Z,18.50
2019-06-10T21:01:55.903Z,18.60
2019-06-10T21:04:25.567Z,18.60
2019-06-10T21:06:55.290Z,18.50
2019-06-10T21:09:27.058Z,18.50
2019-06-10T21:11:56.677Z,18.40
2019-06-10T21:14:26.517Z,18.30
2019-06-10T21:16:56.093Z,18.30
2019-06-10T21:19:25.578Z,18.20
2019-06-10T21:21:55.236Z,18.20
2019-06-10T21:24:24.751Z,18.10
2019-06-10T21:26:54.949Z,18.00
2019-06-10T21:29:24.781Z,18.00
2019-06-10T21:31:55.027Z,17.90
2019-06-10T21:34:24.889Z,17.80
2019-06-10T21:36:54.630Z,17.70
2019-06-10T21:39:24.738Z,17.70
2019-06-10T21:41:55.259Z,17.60
2019-06-10T21:44:24.832Z,17.50
2019-06-10T21:46:54.339Z,17.40
2019-06-10T21:49:24.046Z,17.40
2019-06-10T21:51:56.518Z,17.40
2019-06-10T21:54:24.944Z,17.40
2019-06-10T21:56:55.660Z,17.30
2019-06-10T21:59:25.523Z,17.30
2019-06-10T22:01:55.087Z,17.30
2019-06-10T22:04:24.567Z,17.30
2019-06-10T22:06:55.943Z,17.20
2019-06-10T22:09:25.418Z,17.20
2019-06-10T22:11:55.896Z,17.30
2019-06-10T22:14:25.815Z,17.40
2019-06-10T22:16:56.523Z,17.40
2019-06-10T22:19:26.230Z,17.40
2019-06-10T22:21:56.692Z,17.40
2019-06-10T22:24:26.458Z,17.40
2019-06-10T22:26:56.009Z,17.40
2019-06-10T22:29:25.835Z,17.50
2019-06-10T22:31:57.065Z,17.60
2019-06-10T22:34:26.601Z,17.60
2019-06-10T22:36:57.571Z,17.60
2019-06-10T22:39:27.324Z,17.60
2019-06-10T22:41:57.113Z,17.50
2019-06-10T22:44:26.924Z,17.50
2019-06-10T22:46:57.211Z,17.50
2019-06-10T22:49:26.955Z,17.60
2019-06-10T22:51:58.454Z,17.70
2019-06-10T22:54:27.603Z,17.80
2019-06-10T22:56:58.379Z,17.70
2019-06-10T22:59:28.158Z,17.70
2019-06-10T23:01:58.694Z,17.70
2019-06-10T23:04:29.130Z,17.80
2019-06-10T23:06:59.893Z,17.80
2019-06-10T23:09:30.140Z,17.80
2019-06-10T23:11:59.640Z,17.80
2019-06-10T23:14:29.111Z,17.80
2019-06-10T23:17:00.025Z,17.70
2019-06-10T23:19:29.894Z,17.60
2019-06-10T23:22:00.123Z,17.50
2019-06-10T23:24:32.230Z,17.30
2019-06-10T23:27:03.336Z,17.20
2019-06-10T23:29:33.133Z,17.10
2019-06-10T23:32:06.672Z,17.00
2019-06-10T23:34:33.995Z,17.00
2019-06-10T23:37:03.523Z,16.90
2019-06-10T23:39:33.623Z,16.90
2019-06-10T23:42:04.263Z,16.90
2019-06-10T23:44:34.237Z,16.90
2019-06-10T23:47:04.231Z,16.80
2019-06-10T23:49:33.955Z,16.80
2019-06-10T23:52:05.374Z,16.90
2019-06-10T23:54:34.656Z,16.90
2019-06-10T23:57:05.939Z,16.90
2019-06-10T23:59:35.416Z,17.00
